Time;durP1;ratioP1;P1;durP2;ratioP2;P2;SDS_P1;SDS_P2;PMS_P1;PMS_P2;Temp;Humidity;BMP_temperature;BMP_pressure;BME280_temperature;BME280_humidity;BME280_pressure;Samples;Min_cycle;Max_cycle;Signal;HPM_P1;HPM_P2
2023/05/11 00:01:06;;;;;;;37.05;26.05;;;13.00;99.90;;;;;;4963639;28;20122;-74
2023/05/11 00:03:32;;;;;;;40.38;26.98;;;13.00;99.90;;;;;;4972222;28;20043;-74
2023/05/11 00:05:58;;;;;;;38.20;26.15;;;13.00;99.90;;;;;;4967761;28;20034;-74
2023/05/11 00:08:24;;;;;;;38.63;26.58;;;13.00;99.90;;;;;;4967864;28;20043;-74
2023/05/11 00:10:50;;;;;;;37.25;26.13;;;13.10;99.90;;;;;;4972770;28;20434;-74
2023/05/11 00:13:16;;;;;;;40.22;27.55;;;13.10;99.90;;;;;;4969757;28;20034;-74
2023/05/11 00:15:41;;;;;;;40.95;27.27;;;13.00;99.90;;;;;;4972257;28;20055;-74
2023/05/11 00:18:07;;;;;;;44.20;28.88;;;13.10;99.90;;;;;;4971631;28;20098;-74
2023/05/11 00:20:33;;;;;;;37.80;27.67;;;13.00;99.90;;;;;;4971637;28;20043;-74
2023/05/11 00:22:58;;;;;;;41.63;28.33;;;13.00;99.90;;;;;;4973422;28;20018;-74
2023/05/11 00:25:24;;;;;;;44.95;29.25;;;13.00;99.90;;;;;;4970431;28;20049;-75
2023/05/11 00:27:50;;;;;;;44.22;28.08;;;13.10;99.90;;;;;;4972119;28;20031;-74
2023/05/11 00:30:15;;;;;;;46.15;28.77;;;13.10;99.90;;;;;;4970533;28;20038;-75
2023/05/11 00:32:42;;;;;;;46.55;28.00;;;13.10;99.90;;;;;;4970131;28;20438;-74
2023/05/11 00:35:09;;;;;;;44.75;29.15;;;13.10;99.90;;;;;;4954339;28;20027;-74
2023/05/11 00:37:35;;;;;;;47.95;29.35;;;13.10;99.90;;;;;;4967686;28;20026;-73
2023/05/11 00:40:01;;;;;;;46.75;29.50;;;13.10;99.90;;;;;;4951631;28;20030;-74
2023/05/11 00:42:27;;;;;;;47.83;29.00;;;13.10;99.90;;;;;;4967291;28;20027;-74
2023/05/11 00:44:53;;;;;;;40.85;28.42;;;13.10;99.90;;;;;;4970244;28;20061;-74
2023/05/11 00:47:18;;;;;;;46.40;29.92;;;13.10;99.90;;;;;;4969349;28;20507;-73
2023/05/11 00:49:45;;;;;;;46.17;29.55;;;13.10;99.90;;;;;;4971937;28;20042;-74
2023/05/11 00:52:10;;;;;;;47.58;30.00;;;13.10;99.90;;;;;;4968267;28;20042;-74
2023/05/11 00:54:36;;;;;;;49.10;29.98;;;13.10;99.90;;;;;;4966441;28;20107;-74
2023/05/11 00:57:02;;;;;;;48.72;31.20;;;13.10;99.90;;;;;;4968173;28;20352;-73
2023/05/11 00:59:29;;;;;;;46.38;29.58;;;13.10;99.90;;;;;;4964462;28;20030;-75
2023/05/11 01:01:55;;;;;;;55.47;31.45;;;13.00;99.90;;;;;;4964584;28;20557;-74
2023/05/11 01:04:21;;;;;;;52.97;32.55;;;13.10;99.90;;;;;;4971128;28;20046;-74
2023/05/11 01:07:11;;;;;;;54.20;32.38;;;13.10;99.90;;;;;;4955136;28;20634;-74
2023/05/11 01:09:55;;;;;;;51.97;31.63;;;13.10;99.90;;;;;;4950841;28;20023;-75
2023/05/11 01:12:46;;;;;;;47.42;30.98;;;13.10;99.90;;;;;;4965993;28;20427;-74
2023/05/11 01:15:28;;;;;;;53.30;33.08;;;13.10;99.90;;;;;;4967199;28;20106;-73
2023/05/11 01:18:06;;;;;;;50.22;31.77;;;13.10;99.90;;;;;;4969976;28;20085;-74
2023/05/11 01:20:31;;;;;;;52.00;32.03;;;13.10;99.90;;;;;;4960563;28;20043;-74
2023/05/11 01:23:13;;;;;;;51.95;30.55;;;13.00;99.90;;;;;;4967732;28;20023;-74
2023/05/11 01:25:50;;;;;;;48.78;30.42;;;13.00;99.90;;;;;;4972909;28;20053;-74
2023/05/11 01:28:42;;;;;;;50.58;30.50;;;13.00;99.90;;;;;;4964040;28;20026;-74
2023/05/11 01:31:12;;;;;;;53.13;30.35;;;13.00;99.90;;;;;;4921129;28;20104;-74
2023/05/11 01:33:48;;;;;;;51.58;30.50;;;13.00;99.90;;;;;;4968301;28;20109;-74
2023/05/11 01:36:16;;;;;;;50.35;30.08;;;13.00;99.90;;;;;;4963793;28;21926;-74
2023/05/11 01:38:45;;;;;;;51.83;30.65;;;13.00;99.90;;;;;;4968502;28;20031;-73
2023/05/11 01:41:22;;;;;;;51.10;30.55;;;13.00;99.90;;;;;;4966498;28;20089;-74
2023/05/11 01:43:53;;;;;;;53.10;30.83;;;13.00;99.90;;;;;;4972110;28;20160;-75
2023/05/11 01:46:23;;;;;;;56.78;30.25;;;13.00;99.90;;;;;;4965759;28;20073;-75
2023/05/11 01:48:52;;;;;;;52.13;29.65;;;13.00;99.90;;;;;;4969578;28;20027;-74
2023/05/11 01:51:19;;;;;;;55.58;30.33;;;13.00;99.90;;;;;;4962430;28;20027;-74
2023/05/11 01:53:46;;;;;;;51.95;30.00;;;13.00;99.90;;;;;;4971092;28;20111;-74
2023/05/11 01:56:14;;;;;;;47.80;28.92;;;13.00;99.90;;;;;;4970486;28;20502;-74
2023/05/11 01:58:42;;;;;;;57.13;30.27;;;13.10;99.90;;;;;;4967434;28;20027;-74
2023/05/11 02:01:09;;;;;;;53.75;30.15;;;13.10;99.90;;;;;;4969296;28;20026;-74
2023/05/11 02:03:36;;;;;;;46.63;28.63;;;13.10;99.90;;;;;;4951318;28;20121;-73
2023/05/11 02:06:04;;;;;;;54.17;30.80;;;13.10;99.90;;;;;;4972221;28;20030;-74
2023/05/11 02:08:32;;;;;;;52.40;28.33;;;13.10;99.90;;;;;;4968727;28;20058;-74
2023/05/11 02:11:00;;;;;;;56.65;29.70;;;13.10;99.90;;;;;;4968837;28;20030;-74
2023/05/11 02:13:27;;;;;;;55.95;31.15;;;13.10;99.90;;;;;;4950694;28;20158;-73
2023/05/11 02:15:56;;;;;;;58.65;30.30;;;13.10;99.90;;;;;;4965325;28;20049;-74
2023/05/11 02:18:22;;;;;;;54.10;30.98;;;13.10;99.90;;;;;;4970210;28;20026;-74
2023/05/11 02:20:49;;;;;;;63.08;31.13;;;13.10;99.90;;;;;;4970619;28;20033;-74
2023/05/11 02:23:16;;;;;;;60.38;30.15;;;13.10;99.90;;;;;;4970868;28;20041;-74
2023/05/11 02:25:42;;;;;;;63.28;32.22;;;13.00;99.90;;;;;;4967630;28;20487;-74
2023/05/11 02:28:08;;;;;;;57.92;31.65;;;13.00;99.90;;;;;;4970982;28;20031;-74
2023/05/11 02:30:41;;;;;;;67.05;30.00;;;13.00;99.90;;;;;;4968654;28;20089;-74
2023/05/11 02:33:09;;;;;;;57.58;29.75;;;13.00;99.90;;;;;;4963063;28;20049;-73
2023/05/11 02:35:39;;;;;;;51.72;29.65;;;13.00;99.90;;;;;;4966776;28;20028;-74
2023/05/11 02:38:07;;;;;;;50.47;29.95;;;12.90;99.90;;;;;;4968170;28;20142;-74
2023/05/11 02:40:38;;;;;;;51.70;28.38;;;12.90;99.90;;;;;;4965818;28;20038;-74
2023/05/11 02:43:10;;;;;;;60.50;30.63;;;12.90;99.90;;;;;;4952811;28;20517;-74
2023/05/11 02:45:37;;;;;;;59.45;30.60;;;13.00;99.90;;;;;;4965040;28;20427;-74
2023/05/11 02:48:10;;;;;;;54.85;29.83;;;13.00;99.90;;;;;;4969414;28;20082;-74
2023/05/11 02:50:36;;;;;;;;;;;13.00;99.90;;;;;;4962943;28;20554;-75
2023/05/11 02:53:06;;;;;;;59.25;28.67;;;13.00;99.90;;;;;;4967089;28;19972;-74
2023/05/11 02:55:32;;;;;;;56.55;29.33;;;13.00;99.90;;;;;;4970700;28;20089;-74
2023/05/11 02:57:57;;;;;;;52.28;29.92;;;13.00;99.90;;;;;;4969964;28;20954;-74
2023/05/11 03:00:23;;;;;;;58.65;31.80;;;13.00;99.90;;;;;;4970029;28;20039;-75
2023/05/11 03:02:49;;;;;;;60.80;31.60;;;13.00;99.90;;;;;;4968557;28;20054;-74
2023/05/11 03:05:14;;;;;;;64.70;31.90;;;12.90;99.90;;;;;;4968912;28;20034;-74
2023/05/11 03:07:40;;;;;;;57.70;30.60;;;12.90;99.90;;;;;;4967884;28;20056;-74
2023/05/11 03:10:07;;;;;;;62.63;32.97;;;12.90;99.90;;;;;;4963260;28;20055;-74
2023/05/11 03:12:34;;;;;;;59.17;32.53;;;13.00;99.90;;;;;;4965299;28;20035;-74
2023/05/11 03:15:01;;;;;;;61.15;30.90;;;12.90;99.90;;;;;;4967468;28;20066;-75
2023/05/11 03:17:28;;;;;;;68.05;34.17;;;13.00;99.90;;;;;;4966258;28;20584;-74
2023/05/11 03:19:55;;;;;;;70.18;33.85;;;13.00;99.90;;;;;;4967559;28;20035;-74
2023/05/11 03:22:22;;;;;;;64.65;33.65;;;13.00;99.90;;;;;;4961577;28;20024;-74
2023/05/11 03:24:48;;;;;;;69.00;33.42;;;12.90;99.90;;;;;;4961473;28;20471;-74
2023/05/11 03:27:15;;;;;;;70.90;35.17;;;13.00;99.90;;;;;;4967284;28;20034;-74
2023/05/11 03:29:43;;;;;;;76.97;34.38;;;13.00;99.90;;;;;;4959599;28;20101;-73
2023/05/11 03:32:09;;;;;;;74.38;33.78;;;13.00;99.90;;;;;;4964993;28;20019;-73
2023/05/11 03:34:34;;;;;;;71.05;35.38;;;13.00;99.90;;;;;;4965835;28;20037;-75
2023/05/11 03:37:01;;;;;;;71.47;35.17;;;13.00;99.90;;;;;;4972949;28;20022;-74
2023/05/11 03:39:30;;;;;;;78.70;35.70;;;13.00;99.90;;;;;;4970761;28;20038;-74
2023/05/11 03:41:57;;;;;;;78.95;36.85;;;13.00;99.90;;;;;;4970218;28;20050;-73
2023/05/11 03:44:23;;;;;;;69.55;34.88;;;13.00;99.90;;;;;;4967924;28;20041;-74
2023/05/11 03:46:49;;;;;;;73.05;35.65;;;13.00;99.90;;;;;;4968931;28;20026;-73
2023/05/11 03:49:16;;;;;;;76.20;35.33;;;13.00;99.90;;;;;;4971378;28;20037;-74
2023/05/11 03:51:43;;;;;;;79.43;35.63;;;13.00;99.90;;;;;;4970004;28;20349;-74
2023/05/11 03:54:09;;;;;;;71.43;34.38;;;13.00;99.90;;;;;;4970670;28;20101;-73
2023/05/11 03:56:36;;;;;;;73.50;34.58;;;13.00;99.90;;;;;;4972553;28;20061;-73
2023/05/11 03:59:03;;;;;;;80.20;35.65;;;13.00;99.90;;;;;;4973519;28;20505;-73
2023/05/11 04:01:30;;;;;;;72.82;34.22;;;13.00;99.90;;;;;;4967397;28;20023;-74
2023/05/11 04:03:55;;;;;;;72.03;32.97;;;13.00;99.90;;;;;;4973326;28;20039;-74
2023/05/11 04:06:21;;;;;;;73.15;33.30;;;13.00;99.90;;;;;;4973225;28;20031;-74
2023/05/11 04:08:47;;;;;;;70.55;34.58;;;13.10;99.90;;;;;;4973923;28;20027;-74
2023/05/11 04:11:12;;;;;;;77.93;35.28;;;13.00;99.90;;;;;;4970987;28;20031;-73
2023/05/11 04:13:38;;;;;;;69.53;33.72;;;13.00;99.90;;;;;;4971122;28;20026;-73
2023/05/11 04:16:04;;;;;;;77.13;34.22;;;13.00;99.90;;;;;;4973057;28;20046;-74
2023/05/11 04:18:30;;;;;;;67.13;33.83;;;13.00;99.90;;;;;;4973359;28;20031;-74
2023/05/11 04:20:55;;;;;;;82.78;34.22;;;13.00;99.90;;;;;;4972436;28;20505;-74
2023/05/11 04:23:21;;;;;;;68.03;32.95;;;13.00;99.90;;;;;;4971059;28;20487;-74
2023/05/11 04:25:51;;;;;;;70.15;34.10;;;13.00;99.90;;;;;;4972887;28;20444;-73
2023/05/11 04:28:17;;;;;;;74.03;35.42;;;13.00;99.90;;;;;;4969907;28;20106;-74
2023/05/11 04:30:42;;;;;;;73.28;34.15;;;12.90;99.90;;;;;;4968596;28;20152;-73
2023/05/11 04:33:08;;;;;;;67.47;32.63;;;13.00;99.90;;;;;;4967875;28;20107;-73
2023/05/11 04:35:38;;;;;;;70.45;33.47;;;13.00;99.90;;;;;;4967413;28;20022;-73
2023/05/11 04:38:05;;;;;;;65.53;32.42;;;13.00;99.90;;;;;;4969641;28;20026;-73
2023/05/11 04:40:30;;;;;;;69.53;32.42;;;13.00;99.90;;;;;;4967225;28;20038;-74
2023/05/11 04:42:56;;;;;;;73.22;36.15;;;13.00;99.90;;;;;;4967964;28;20027;-73
2023/05/11 04:45:21;;;;;;;68.15;33.38;;;13.00;99.90;;;;;;4970862;28;20039;-74
2023/05/11 04:47:47;;;;;;;75.82;34.28;;;13.10;99.90;;;;;;4968560;28;20093;-73
2023/05/11 04:50:12;;;;;;;73.72;34.72;;;13.10;99.90;;;;;;4971808;28;20131;-74
2023/05/11 04:52:38;;;;;;;71.22;35.10;;;13.10;99.90;;;;;;4972199;28;20031;-74
2023/05/11 04:55:06;;;;;;;75.32;34.60;;;13.20;99.90;;;;;;4972103;28;20046;-74
2023/05/11 04:57:33;;;;;;;74.18;34.85;;;13.20;99.90;;;;;;4964573;28;20475;-74
2023/05/11 04:59:59;;;;;;;75.80;34.58;;;13.30;99.90;;;;;;4964392;28;20038;-74
2023/05/11 05:02:24;;;;;;;75.85;36.08;;;13.30;99.90;;;;;;4963924;28;20027;-74
2023/05/11 05:04:50;;;;;;;70.10;32.83;;;13.30;99.90;;;;;;4966654;28;20042;-74
2023/05/11 05:07:15;;;;;;;69.20;34.92;;;13.30;99.90;;;;;;4965937;28;20042;-74
2023/05/11 05:09:41;;;;;;;69.47;35.28;;;13.40;99.90;;;;;;4948670;28;20074;-73
2023/05/11 05:12:06;;;;;;;75.88;35.30;;;13.40;99.90;;;;;;4956882;28;20034;-74
2023/05/11 05:14:32;;;;;;;71.72;33.05;;;13.50;99.90;;;;;;4963885;28;20035;-73
2023/05/11 05:17:00;;;;;;;67.85;31.67;;;13.50;99.90;;;;;;4964577;28;20055;-74
2023/05/11 05:19:25;;;;;;;65.90;31.95;;;13.70;99.90;;;;;;4959798;28;20097;-74
2023/05/11 05:21:51;;;;;;;64.43;32.35;;;13.70;99.90;;;;;;4960220;28;20051;-74
2023/05/11 05:24:16;;;;;;;65.15;31.08;;;13.80;99.90;;;;;;4961595;28;20042;-73
2023/05/11 05:26:42;;;;;;;67.93;33.03;;;13.80;99.90;;;;;;4965356;28;20449;-75
2023/05/11 05:29:08;;;;;;;74.32;35.22;;;13.90;99.90;;;;;;4965670;28;20494;-73
2023/05/11 05:31:33;;;;;;;70.15;36.30;;;13.90;99.90;;;;;;4966810;28;20041;-73
2023/05/11 05:33:59;;;;;;;67.55;36.40;;;13.90;99.90;;;;;;4948143;28;20073;-73
2023/05/11 05:36:25;;;;;;;71.05;36.38;;;13.90;99.90;;;;;;4964643;28;20394;-74
2023/05/11 05:38:50;;;;;;;67.05;36.72;;;14.00;99.90;;;;;;4970407;28;20034;-73
2023/05/11 05:41:16;;;;;;;68.93;35.85;;;14.00;99.90;;;;;;4964500;28;20022;-74
2023/05/11 05:43:41;;;;;;;73.75;37.20;;;14.00;99.90;;;;;;4964001;28;20030;-74
2023/05/11 05:46:07;;;;;;;72.22;35.85;;;14.00;99.90;;;;;;4961818;28;20471;-74
2023/05/11 05:48:32;;;;;;;66.10;32.65;;;14.10;99.90;;;;;;4954782;28;20397;-75
2023/05/11 05:50:59;;;;;;;62.55;32.92;;;14.20;99.90;;;;;;4972618;28;20031;-75
2023/05/11 05:53:24;;;;;;;64.78;33.22;;;14.20;99.90;;;;;;4972973;28;20051;-74
2023/05/11 05:55:50;;;;;;;63.05;31.40;;;14.30;99.90;;;;;;4971959;28;20027;-75
2023/05/11 05:58:15;;;;;;;62.53;32.78;;;14.30;99.90;;;;;;4971118;28;20034;-75
2023/05/11 06:00:41;;;;;;;62.78;32.03;;;14.30;99.90;;;;;;4969110;28;20498;-73
2023/05/11 06:03:06;;;;;;;68.88;34.47;;;14.20;99.90;;;;;;4971275;28;20033;-74
2023/05/11 06:05:32;;;;;;;62.78;34.40;;;14.20;99.90;;;;;;4972058;28;20035;-75
2023/05/11 06:07:57;;;;;;;66.70;33.95;;;14.30;99.90;;;;;;4972870;28;20041;-75
2023/05/11 06:10:23;;;;;;;62.20;32.45;;;14.40;99.90;;;;;;4969356;28;20134;-74
2023/05/11 06:12:48;;;;;;;58.50;33.38;;;14.40;99.90;;;;;;4972178;28;20066;-75
2023/05/11 06:15:14;;;;;;;58.80;33.28;;;14.50;99.90;;;;;;4970535;28;20114;-76
2023/05/11 06:17:40;;;;;;;57.70;32.42;;;14.60;99.90;;;;;;4970021;28;20026;-74
2023/05/11 06:20:06;;;;;;;61.50;32.90;;;14.70;99.90;;;;;;4971047;28;20036;-75
2023/05/11 06:22:34;;;;;;;59.75;31.60;;;14.80;99.90;;;;;;4954313;28;20510;-75
2023/05/11 06:24:59;;;;;;;54.47;31.17;;;14.80;99.90;;;;;;4967755;28;20039;-75
2023/05/11 06:27:25;;;;;;;61.55;34.38;;;14.80;99.90;;;;;;4972222;28;20033;-74
2023/05/11 06:29:50;;;;;;;57.35;31.55;;;14.80;99.90;;;;;;4968108;28;20077;-75
2023/05/11 06:32:16;;;;;;;61.15;30.60;;;14.90;99.90;;;;;;4964829;28;20019;-75
2023/05/11 06:34:41;;;;;;;58.53;30.90;;;14.80;99.90;;;;;;4972917;28;20026;-75
2023/05/11 06:37:07;;;;;;;58.35;31.38;;;14.80;99.90;;;;;;4954710;28;20027;-75
2023/05/11 06:39:36;;;;;;;61.88;32.95;;;14.80;99.90;;;;;;4964930;28;20034;-74
2023/05/11 06:42:03;;;;;;;58.92;33.25;;;14.90;99.90;;;;;;4969263;28;20019;-75
2023/05/11 06:44:29;;;;;;;55.00;30.67;;;15.00;99.90;;;;;;4967647;28;20082;-74
2023/05/11 06:46:54;;;;;;;53.97;29.50;;;15.10;99.90;;;;;;4970969;28;20061;-74
2023/05/11 06:49:20;;;;;;;51.38;28.52;;;15.20;99.90;;;;;;4971714;28;20185;-74
2023/05/11 06:51:46;;;;;;;48.97;27.42;;;15.20;99.90;;;;;;4969424;28;20030;-75
2023/05/11 06:54:11;;;;;;;49.85;25.33;;;15.30;99.90;;;;;;4968393;28;20031;-75
2023/05/11 06:56:37;;;;;;;43.42;24.05;;;15.30;99.90;;;;;;4963819;28;20111;-74
2023/05/11 06:59:02;;;;;;;41.55;23.23;;;15.30;99.90;;;;;;4967719;28;20038;-74
2023/05/11 07:01:28;;;;;;;44.13;23.92;;;15.30;99.90;;;;;;4945907;28;20023;-75
2023/05/11 07:03:54;;;;;;;38.92;23.05;;;15.40;99.90;;;;;;4971785;28;20034;-75
2023/05/11 07:06:20;;;;;;;40.80;22.90;;;15.40;99.90;;;;;;4975744;28;20336;-75
2023/05/11 07:08:46;;;;;;;40.45;23.20;;;15.40;99.90;;;;;;4978487;28;20050;-75
2023/05/11 07:11:12;;;;;;;40.80;23.00;;;15.40;99.90;;;;;;4978220;28;20019;-75
2023/05/11 07:13:37;;;;;;;39.25;22.50;;;15.50;99.90;;;;;;4977500;28;20037;-75
2023/05/11 07:16:03;;;;;;;39.50;22.73;;;15.50;99.90;;;;;;4978262;28;20106;-75
2023/05/11 07:18:29;;;;;;;42.15;24.00;;;15.60;99.90;;;;;;4978217;28;20109;-76
2023/05/11 07:20:54;;;;;;;45.80;23.77;;;15.70;99.90;;;;;;4969567;28;20026;-74
2023/05/11 07:23:20;;;;;;;53.20;24.08;;;15.70;99.90;;;;;;4977971;28;20082;-76
2023/05/11 07:25:46;;;;;;;54.10;24.48;;;15.70;99.90;;;;;;4977194;28;20109;-75
2023/05/11 07:28:11;;;;;;;43.45;22.98;;;15.70;99.90;;;;;;4966286;28;20047;-75
2023/05/11 07:30:37;;;;;;;44.97;23.13;;;15.80;99.90;;;;;;4977913;28;20026;-76
2023/05/11 07:33:02;;;;;;;49.03;21.90;;;15.80;99.90;;;;;;4978592;28;20019;-76
2023/05/11 07:35:28;;;;;;;43.88;22.88;;;15.90;99.90;;;;;;4968335;28;20054;-76
2023/05/11 07:37:54;;;;;;;43.90;22.30;;;16.00;99.90;;;;;;4971703;28;20084;-76
2023/05/11 07:40:19;;;;;;;41.13;22.85;;;16.00;99.90;;;;;;4977983;28;20019;-75
2023/05/11 07:42:45;;;;;;;41.78;21.85;;;15.90;99.90;;;;;;4977713;28;20046;-76
2023/05/11 07:45:10;;;;;;;40.40;22.10;;;16.00;99.90;;;;;;4967973;28;20035;-75
2023/05/11 07:47:36;;;;;;;42.83;22.58;;;15.90;99.90;;;;;;4977706;28;20418;-76
2023/05/11 07:50:02;;;;;;;40.67;22.90;;;16.00;99.90;;;;;;4972384;28;20033;-76
2023/05/11 07:52:27;;;;;;;44.97;23.00;;;16.00;99.90;;;;;;4978162;28;20163;-76
2023/05/11 07:54:53;;;;;;;46.38;23.83;;;16.00;99.90;;;;;;4961010;28;20023;-76
2023/05/11 07:57:19;;;;;;;42.78;24.45;;;16.00;99.90;;;;;;4977727;28;20105;-75
2023/05/11 07:59:44;;;;;;;43.08;23.45;;;16.10;99.90;;;;;;4978639;28;20030;-76
2023/05/11 08:02:11;;;;;;;41.63;24.20;;;16.20;99.90;;;;;;4975217;28;20019;-74
2023/05/11 08:04:36;;;;;;;44.90;23.17;;;16.10;99.90;;;;;;4976716;28;20070;-76
2023/05/11 08:07:03;;;;;;;43.92;23.92;;;16.10;99.90;;;;;;4978441;28;20061;-76
2023/05/11 08:09:29;;;;;;;43.72;25.25;;;16.10;99.90;;;;;;4987961;28;20023;-75
2023/05/11 08:11:55;;;;;;;46.83;26.10;;;16.10;99.90;;;;;;4998169;28;20029;-76
2023/05/11 08:14:22;;;;;;;48.65;26.88;;;16.00;99.90;;;;;;4984936;28;20039;-76
2023/05/11 08:16:48;;;;;;;49.63;26.92;;;15.90;99.90;;;;;;4975625;28;20072;-76
2023/05/11 08:19:14;;;;;;;41.47;26.42;;;15.90;99.90;;;;;;4972320;28;20093;-76
2023/05/11 08:21:39;;;;;;;43.47;25.02;;;16.10;99.90;;;;;;4974092;28;20031;-76
2023/05/11 08:24:05;;;;;;;44.60;26.25;;;16.10;99.90;;;;;;4974689;28;20035;-76
2023/05/11 08:26:31;;;;;;;49.45;26.95;;;16.10;99.90;;;;;;4973162;28;20026;-76
2023/05/11 08:28:57;;;;;;;43.92;26.50;;;16.00;99.90;;;;;;4973873;28;20071;-75
2023/05/11 08:31:22;;;;;;;39.13;25.27;;;16.00;99.90;;;;;;4973007;28;20026;-75
2023/05/11 08:33:48;;;;;;;44.97;26.85;;;16.10;99.90;;;;;;4973530;28;20383;-75
2023/05/11 08:36:14;;;;;;;41.38;25.90;;;16.20;99.90;;;;;;4973458;28;20031;-76
2023/05/11 08:38:40;;;;;;;42.25;25.80;;;16.30;99.90;;;;;;4972088;28;20038;-76
2023/05/11 08:41:06;;;;;;;42.28;24.77;;;16.40;99.90;;;;;;4971538;28;20033;-75
2023/05/11 08:43:34;;;;;;;45.08;24.52;;;16.50;99.90;;;;;;4974213;28;20046;-76
2023/05/11 08:46:06;;;;;;;39.50;24.42;;;16.50;99.90;;;;;;4973861;28;20027;-76
2023/05/11 08:48:31;;;;;;;40.20;23.95;;;16.50;99.90;;;;;;4958899;28;20015;-73
2023/05/11 08:50:58;;;;;;;42.83;26.08;;;16.60;99.90;;;;;;4974706;28;20042;-73
2023/05/11 08:53:24;;;;;;;38.35;25.10;;;16.70;99.90;;;;;;4956967;28;20126;-73
2023/05/11 08:55:50;;;;;;;39.25;23.05;;;16.80;99.90;;;;;;4956049;28;20105;-73
2023/05/11 08:58:21;;;;;;;41.00;25.20;;;17.00;99.90;;;;;;4973159;28;20490;-76
2023/05/11 09:00:49;;;;;;;43.25;25.27;;;17.10;99.90;;;;;;4974554;28;20062;-75
2023/05/11 09:03:18;;;;;;;44.30;26.13;;;17.20;99.90;;;;;;4973804;28;20469;-76
2023/05/11 09:05:48;;;;;;;35.08;22.15;;;17.30;99.90;;;;;;4974365;28;20039;-75
2023/05/11 09:08:16;;;;;;;43.90;25.00;;;17.30;99.90;;;;;;4973859;28;20035;-76
2023/05/11 09:10:43;;;;;;;37.45;23.10;;;17.40;99.90;;;;;;4973356;28;20035;-76
2023/05/11 09:13:08;;;;;;;43.47;24.98;;;17.60;99.90;;;;;;4972946;28;20023;-76
2023/05/11 09:15:34;;;;;;;39.60;22.63;;;17.70;99.90;;;;;;4974248;28;20118;-75
2023/05/11 09:18:00;;;;;;;39.05;23.00;;;17.80;99.90;;;;;;4974200;28;20464;-76
2023/05/11 09:20:28;;;;;;;42.83;21.92;;;17.80;99.90;;;;;;4974061;28;20027;-76
2023/05/11 09:22:54;;;;;;;34.78;22.00;;;18.00;99.90;;;;;;4973998;28;20380;-76
2023/05/11 09:25:21;;;;;;;41.00;23.33;;;18.20;99.90;;;;;;4972584;28;20031;-76
2023/05/11 09:27:47;;;;;;;39.28;22.35;;;18.20;99.90;;;;;;4971024;28;20081;-76
2023/05/11 09:30:17;;;;;;;36.13;23.85;;;18.30;99.90;;;;;;4971542;28;20062;-76
2023/05/11 09:32:48;;;;;;;36.00;23.65;;;18.40;99.90;;;;;;4973507;28;20054;-76
2023/05/11 09:35:34;;;;;;;35.65;21.73;;;18.40;99.90;;;;;;4973333;28;20031;-76
2023/05/11 09:38:11;;;;;;;37.00;21.50;;;18.50;99.90;;;;;;4970499;28;20019;-76
2023/05/11 09:40:48;;;;;;;36.38;22.52;;;18.40;99.90;;;;;;4973019;28;20036;-76
2023/05/11 09:43:19;;;;;;;33.75;21.88;;;18.40;99.90;;;;;;4969443;28;20125;-75
2023/05/11 09:45:50;;;;;;;31.02;20.50;;;18.40;99.90;;;;;;4954284;28;20446;-76
2023/05/11 09:48:15;;;;;;;28.65;19.88;;;18.50;99.90;;;;;;4970620;28;20386;-78
2023/05/11 09:50:41;;;;;;;37.22;21.80;;;18.60;99.90;;;;;;4971867;28;20102;-75
2023/05/11 09:53:07;;;;;;;39.20;22.00;;;18.70;99.90;;;;;;4969711;28;20488;-76
2023/05/11 09:55:33;;;;;;;32.30;20.30;;;18.70;99.90;;;;;;4973093;28;20026;-76
2023/05/11 09:57:59;;;;;;;35.55;21.15;;;18.70;99.90;;;;;;4965967;28;20109;-76
2023/05/11 10:00:24;;;;;;;31.38;20.83;;;18.80;99.90;;;;;;4971826;28;20027;-76
2023/05/11 10:03:00;;;;;;;33.45;21.42;;;18.70;99.90;;;;;;4973194;28;20037;-76
2023/05/11 10:05:25;;;;;;;31.83;21.02;;;18.80;99.90;;;;;;4971960;28;20443;-76
2023/05/11 10:07:59;;;;;;;34.20;22.23;;;18.90;99.90;;;;;;4973323;28;20023;-76
2023/05/11 10:10:28;;;;;;;34.60;21.80;;;18.90;99.90;;;;;;4972689;28;20400;-74
2023/05/11 10:12:54;;;;;;;35.15;22.05;;;19.00;99.90;;;;;;4973345;28;20037;-74
2023/05/11 10:15:25;;;;;;;35.53;23.45;;;19.00;99.90;;;;;;4971981;28;20046;-73
2023/05/11 10:17:52;;;;;;;34.00;22.45;;;19.00;99.90;;;;;;4971658;28;20038;-73
2023/05/11 10:20:19;;;;;;;33.92;21.90;;;19.00;99.90;;;;;;4968653;28;20546;-76
2023/05/11 10:22:45;;;;;;;36.85;24.25;;;19.00;99.90;;;;;;4972988;28;20035;-75
2023/05/11 10:25:12;;;;;;;31.67;20.88;;;19.10;99.90;;;;;;4971347;28;20053;-76
2023/05/11 10:27:38;;;;;;;31.90;22.77;;;19.10;99.90;;;;;;4972332;28;20427;-77
2023/05/11 10:30:06;;;;;;;29.60;20.00;;;19.00;99.90;;;;;;4968953;28;20019;-76
2023/05/11 10:32:38;;;;;;;31.92;22.05;;;19.00;99.90;;;;;;4971731;28;20015;-76
2023/05/11 10:35:05;;;;;;;31.73;23.45;;;19.00;99.90;;;;;;4972331;28;20054;-76
2023/05/11 10:37:31;;;;;;;32.40;23.48;;;19.00;99.90;;;;;;4964028;28;20026;-76
2023/05/11 10:39:58;;;;;;;37.10;26.23;;;19.00;99.90;;;;;;4972055;28;20035;-76
2023/05/11 10:42:49;;;;;;;37.70;27.35;;;19.10;99.90;;;;;;4972023;28;20061;-75
2023/05/11 10:45:38;;;;;;;38.70;26.35;;;19.00;99.90;;;;;;4965159;28;20070;-75
2023/05/11 10:48:41;;;;;;;33.38;24.48;;;19.00;99.90;;;;;;4962144;28;20038;-77
2023/05/11 10:51:39;;;;;;;34.13;23.77;;;19.00;99.90;;;;;;4958030;28;20034;-74
2023/05/11 10:54:33;;;;;;;32.03;22.25;;;19.00;99.90;;;;;;4965898;28;20093;-73
2023/05/11 10:57:40;;;;;;;33.25;21.27;;;19.10;99.90;;;;;;4970132;23;20103;-75
2023/05/11 11:00:29;;;;;;;32.83;21.77;;;19.10;99.90;;;;;;4971178;28;20030;-74
2023/05/11 11:03:07;;;;;;;31.75;23.52;;;19.10;99.90;;;;;;4972398;28;20098;-75
2023/05/11 11:05:34;;;;;;;31.67;20.92;;;19.10;99.90;;;;;;4972704;28;20042;-76
2023/05/11 11:08:06;;;;;;;31.90;21.40;;;18.90;99.90;;;;;;4968932;28;20549;-75
2023/05/11 11:10:34;;;;;;;29.13;20.77;;;18.90;99.90;;;;;;4972850;28;20042;-74
2023/05/11 11:13:11;;;;;;;32.88;21.95;;;19.00;99.90;;;;;;4966079;28;20027;-75
2023/05/11 11:15:54;;;;;;;31.83;21.00;;;19.10;99.90;;;;;;4961308;28;20478;-75
2023/05/11 11:18:23;;;;;;;32.55;20.70;;;19.10;99.90;;;;;;4969290;28;20140;-74
2023/05/11 11:20:54;;;;;;;29.27;20.33;;;19.00;99.90;;;;;;4956561;28;20026;-76
2023/05/11 11:23:39;;;;;;;28.77;20.17;;;19.20;99.90;;;;;;4956287;28;20030;-75
2023/05/11 11:26:05;;;;;;;27.35;19.30;;;19.30;99.90;;;;;;4964527;28;20050;-75
2023/05/11 11:28:59;;;;;;;29.25;20.33;;;19.30;99.90;;;;;;4956333;28;20482;-73
2023/05/11 11:31:29;;;;;;;35.63;20.38;;;19.50;99.90;;;;;;4943772;28;20522;-74
2023/05/11 11:33:57;;;;;;;30.55;19.83;;;19.50;99.90;;;;;;4974988;28;20106;-74
2023/05/11 11:36:54;;;;;;;27.63;19.85;;;19.40;99.90;;;;;;4972546;28;20038;-77
2023/05/11 11:39:21;;;;;;;25.25;18.05;;;19.50;99.90;;;;;;4958045;28;20018;-73
2023/05/11 11:42:17;;;;;;;27.30;18.95;;;19.70;99.90;;;;;;4963351;28;20081;-74
2023/05/11 11:44:43;;;;;;;31.30;19.40;;;19.80;99.90;;;;;;4969139;28;20030;-75
2023/05/11 11:47:20;;;;;;;29.90;20.02;;;19.90;99.90;;;;;;4969058;28;20027;-75
2023/05/11 11:49:46;;;;;;;29.20;18.42;;;19.90;99.90;;;;;;4969964;28;20035;-75
2023/05/11 11:52:30;;;;;;;28.83;20.30;;;20.10;99.90;;;;;;4969320;28;20026;-74
2023/05/11 11:54:58;;;;;;;28.63;19.27;;;20.30;99.90;;;;;;4976067;28;20031;-75
2023/05/11 11:57:51;;;;;;;24.70;17.13;;;20.30;99.90;;;;;;4975146;28;20059;-75
2023/05/11 12:00:20;;;;;;;;;;;20.40;99.90;;;;;;4972330;28;20379;-74
2023/05/11 12:02:45;;;;;;;26.02;16.98;;;20.30;99.90;;;;;;4965942;28;19914;-75
2023/05/11 12:05:18;;;;;;;26.30;17.15;;;20.10;99.90;;;;;;4966346;28;20030;-75
2023/05/11 12:07:45;;;;;;;27.98;19.38;;;19.90;99.90;;;;;;4975699;28;20075;-75
2023/05/11 12:10:17;;;;;;;27.17;18.65;;;19.70;99.90;;;;;;4973792;28;20031;-74
2023/05/11 12:12:53;;;;;;;29.38;20.25;;;19.60;99.90;;;;;;4971731;28;20031;-75
2023/05/11 12:15:28;;;;;;;30.85;20.65;;;19.50;99.90;;;;;;4970762;28;20026;-74
2023/05/11 12:17:54;;;;;;;29.23;19.65;;;19.30;99.90;;;;;;4975574;28;20045;-75
2023/05/11 12:20:20;;;;;;;29.13;19.95;;;19.10;99.90;;;;;;4970377;28;20027;-74
2023/05/11 12:22:47;;;;;;;26.80;18.25;;;18.80;99.90;;;;;;4973076;28;20379;-75
2023/05/11 12:25:16;;;;;;;28.17;21.58;;;18.50;99.90;;;;;;4973047;28;20039;-74
2023/05/11 12:27:50;;;;;;;35.22;21.88;;;18.10;99.90;;;;;;4966231;28;20037;-75
2023/05/11 12:30:23;;;;;;;59.58;28.02;;;17.70;99.90;;;;;;4973623;28;20034;-75
2023/05/11 12:32:49;;;;;;;49.22;26.63;;;17.30;99.90;;;;;;4957956;28;20106;-76
2023/05/11 12:35:24;;;;;;;36.13;23.83;;;17.00;99.90;;;;;;4974274;28;20121;-75